sensor_id;sensor_type;location;lat;lon;timestamp;P1;durP1;ratioP1;P2;durP2;ratioP2
10059;SDS011;5069;49.306;8.636;2022-10-22T00:02:34;6.03;;;2.00;;
10059;SDS011;5069;49.306;8.636;2022-10-22T00:05:36;3.93;;;1.77;;
10059;SDS011;5069;49.306;8.636;2022-10-22T00:08:37;2.97;;;1.80;;
10059;SDS011;5069;49.306;8.636;2022-10-22T00:11:39;5.33;;;1.87;;
10059;SDS011;5069;49.306;8.636;2022-10-22T00:14:42;5.47;;;1.80;;
10059;SDS011;5069;49.306;8.636;2022-10-22T00:17:44;7.57;;;1.87;;
10059;SDS011;5069;49.306;8.636;2022-10-22T00:20:45;9.13;;;2.00;;
10059;SDS011;5069;49.306;8.636;2022-10-22T00:23:47;1.93;;;1.43;;
10059;SDS011;5069;49.306;8.636;2022-10-22T00:26:48;4.13;;;1.60;;
10059;SDS011;5069;49.306;8.636;2022-10-22T00:29:50;6.50;;;1.53;;
10059;SDS011;5069;49.306;8.636;2022-10-22T00:32:52;3.37;;;1.97;;
10059;SDS011;5069;49.306;8.636;2022-10-22T00:35:53;3.33;;;1.70;;
10059;SDS011;5069;49.306;8.636;2022-10-22T00:38:55;3.33;;;1.80;;
10059;SDS011;5069;49.306;8.636;2022-10-22T00:41:56;5.20;;;1.90;;
10059;SDS011;5069;49.306;8.636;2022-10-22T00:48:01;3.30;;;1.63;;
10059;SDS011;5069;49.306;8.636;2022-10-22T00:51:07;5.10;;;1.50;;
10059;SDS011;5069;49.306;8.636;2022-10-22T00:54:09;3.20;;;1.17;;
10059;SDS011;5069;49.306;8.636;2022-10-22T00:57:11;3.30;;;1.33;;
10059;SDS011;5069;49.306;8.636;2022-10-22T01:00:12;5.03;;;1.07;;
10059;SDS011;5069;49.306;8.636;2022-10-22T01:03:14;3.97;;;1.13;;
10059;SDS011;5069;49.306;8.636;2022-10-22T01:06:26;2.03;;;1.10;;
10059;SDS011;5069;49.306;8.636;2022-10-22T01:09:31;3.77;;;1.00;;
10059;SDS011;5069;49.306;8.636;2022-10-22T01:16:14;4.43;;;1.00;;
10059;SDS011;5069;49.306;8.636;2022-10-22T01:22:57;4.30;;;1.10;;
10059;SDS011;5069;49.306;8.636;2022-10-22T01:29:50;2.03;;;1.07;;
10059;SDS011;5069;49.306;8.636;2022-10-22T01:32:58;3.03;;;1.20;;
10059;SDS011;5069;49.306;8.636;2022-10-22T01:36:03;0.97;;;0.90;;
10059;SDS011;5069;49.306;8.636;2022-10-22T01:39:05;4.23;;;1.30;;
10059;SDS011;5069;49.306;8.636;2022-10-22T01:42:09;1.93;;;1.20;;
10059;SDS011;5069;49.306;8.636;2022-10-22T01:45:13;2.33;;;1.00;;
10059;SDS011;5069;49.306;8.636;2022-10-22T01:48:21;1.27;;;0.93;;
10059;SDS011;5069;49.306;8.636;2022-10-22T01:51:53;2.93;;;1.30;;
10059;SDS011;5069;49.306;8.636;2022-10-22T01:55:27;1.53;;;1.00;;
10059;SDS011;5069;49.306;8.636;2022-10-22T01:59:34;4.37;;;1.30;;
10059;SDS011;5069;49.306;8.636;2022-10-22T02:05:54;3.90;;;0.90;;
10059;SDS011;5069;49.306;8.636;2022-10-22T02:08:59;1.83;;;1.00;;
10059;SDS011;5069;49.306;8.636;2022-10-22T02:12:04;3.90;;;0.87;;
10059;SDS011;5069;49.306;8.636;2022-10-22T02:15:08;2.87;;;0.70;;
10059;SDS011;5069;49.306;8.636;2022-10-22T02:18:12;1.70;;;0.70;;
10059;SDS011;5069;49.306;8.636;2022-10-22T02:21:15;2.53;;;0.60;;
10059;SDS011;5069;49.306;8.636;2022-10-22T02:24:17;0.70;;;0.70;;
10059;SDS011;5069;49.306;8.636;2022-10-22T02:30:37;0.60;;;0.60;;
10059;SDS011;5069;49.306;8.636;2022-10-22T02:33:42;1.43;;;0.63;;
10059;SDS011;5069;49.306;8.636;2022-10-22T02:36:48;1.57;;;0.57;;
10059;SDS011;5069;49.306;8.636;2022-10-22T02:39:51;1.10;;;0.87;;
10059;SDS011;5069;49.306;8.636;2022-10-22T02:42:54;1.87;;;0.60;;
10059;SDS011;5069;49.306;8.636;2022-10-22T02:45:56;0.87;;;0.60;;
10059;SDS011;5069;49.306;8.636;2022-10-22T02:48:57;0.60;;;0.60;;
10059;SDS011;5069;49.306;8.636;2022-10-22T02:51:59;2.93;;;0.80;;
10059;SDS011;5069;49.306;8.636;2022-10-22T02:55:00;2.50;;;0.60;;
10059;SDS011;5069;49.306;8.636;2022-10-22T02:58:02;1.53;;;0.80;;
10059;SDS011;5069;49.306;8.636;2022-10-22T03:01:03;1.33;;;0.70;;
10059;SDS011;5069;49.306;8.636;2022-10-22T03:04:05;2.60;;;0.60;;
10059;SDS011;5069;49.306;8.636;2022-10-22T03:07:07;1.57;;;0.80;;
10059;SDS011;5069;49.306;8.636;2022-10-22T03:10:09;1.27;;;0.80;;
10059;SDS011;5069;49.306;8.636;2022-10-22T03:13:10;1.67;;;0.67;;
10059;SDS011;5069;49.306;8.636;2022-10-22T03:16:12;2.70;;;0.70;;
10059;SDS011;5069;49.306;8.636;2022-10-22T03:19:13;3.47;;;0.83;;
10059;SDS011;5069;49.306;8.636;2022-10-22T03:22:22;1.33;;;0.60;;
10059;SDS011;5069;49.306;8.636;2022-10-22T03:25:27;1.30;;;0.67;;
10059;SDS011;5069;49.306;8.636;2022-10-22T03:28:31;2.50;;;0.50;;
10059;SDS011;5069;49.306;8.636;2022-10-22T03:31:33;2.57;;;0.80;;
10059;SDS011;5069;49.306;8.636;2022-10-22T03:34:35;0.60;;;0.60;;
10059;SDS011;5069;49.306;8.636;2022-10-22T03:37:36;1.73;;;0.60;;
10059;SDS011;5069;49.306;8.636;2022-10-22T03:40:39;1.70;;;0.70;;
10059;SDS011;5069;49.306;8.636;2022-10-22T03:43:42;1.90;;;0.60;;
10059;SDS011;5069;49.306;8.636;2022-10-22T03:46:49;3.23;;;0.70;;
10059;SDS011;5069;49.306;8.636;2022-10-22T03:49:51;3.00;;;0.80;;
10059;SDS011;5069;49.306;8.636;2022-10-22T03:52:52;2.00;;;0.50;;
10059;SDS011;5069;49.306;8.636;2022-10-22T03:55:54;1.83;;;0.60;;
10059;SDS011;5069;49.306;8.636;2022-10-22T03:58:56;2.00;;;0.60;;
10059;SDS011;5069;49.306;8.636;2022-10-22T04:01:58;1.13;;;0.80;;
10059;SDS011;5069;49.306;8.636;2022-10-22T04:04:59;2.80;;;0.70;;
10059;SDS011;5069;49.306;8.636;2022-10-22T04:08:01;3.63;;;0.70;;
10059;SDS011;5069;49.306;8.636;2022-10-22T04:11:02;1.47;;;0.70;;
10059;SDS011;5069;49.306;8.636;2022-10-22T04:14:04;3.37;;;0.80;;
10059;SDS011;5069;49.306;8.636;2022-10-22T04:17:05;1.37;;;0.80;;
10059;SDS011;5069;49.306;8.636;2022-10-22T04:20:07;1.27;;;1.03;;
10059;SDS011;5069;49.306;8.636;2022-10-22T04:23:09;2.87;;;0.73;;
10059;SDS011;5069;49.306;8.636;2022-10-22T04:26:10;1.83;;;0.90;;
10059;SDS011;5069;49.306;8.636;2022-10-22T04:29:12;1.97;;;0.83;;
10059;SDS011;5069;49.306;8.636;2022-10-22T04:32:16;5.57;;;1.10;;
10059;SDS011;5069;49.306;8.636;2022-10-22T04:35:18;5.80;;;1.03;;
10059;SDS011;5069;49.306;8.636;2022-10-22T04:38:19;1.93;;;0.97;;
10059;SDS011;5069;49.306;8.636;2022-10-22T04:41:22;2.63;;;0.77;;
10059;SDS011;5069;49.306;8.636;2022-10-22T04:44:29;2.03;;;0.80;;
10059;SDS011;5069;49.306;8.636;2022-10-22T04:47:30;2.37;;;0.90;;
10059;SDS011;5069;49.306;8.636;2022-10-22T04:50:31;0.70;;;0.70;;
10059;SDS011;5069;49.306;8.636;2022-10-22T04:53:33;2.90;;;0.70;;
10059;SDS011;5069;49.306;8.636;2022-10-22T04:56:35;1.27;;;0.80;;
10059;SDS011;5069;49.306;8.636;2022-10-22T04:59:37;1.57;;;0.73;;
10059;SDS011;5069;49.306;8.636;2022-10-22T05:02:38;3.97;;;0.90;;
10059;SDS011;5069;49.306;8.636;2022-10-22T05:05:40;1.47;;;0.97;;
10059;SDS011;5069;49.306;8.636;2022-10-22T05:08:42;2.80;;;0.90;;
10059;SDS011;5069;49.306;8.636;2022-10-22T05:11:44;1.63;;;0.80;;
10059;SDS011;5069;49.306;8.636;2022-10-22T05:14:49;2.30;;;1.00;;
10059;SDS011;5069;49.306;8.636;2022-10-22T05:17:50;1.07;;;0.73;;
10059;SDS011;5069;49.306;8.636;2022-10-22T05:20:52;1.23;;;0.90;;
10059;SDS011;5069;49.306;8.636;2022-10-22T05:23:53;2.30;;;0.80;;
10059;SDS011;5069;49.306;8.636;2022-10-22T05:26:56;1.27;;;0.70;;
10059;SDS011;5069;49.306;8.636;2022-10-22T05:29:58;6.13;;;0.97;;
10059;SDS011;5069;49.306;8.636;2022-10-22T05:33:00;1.07;;;0.90;;
10059;SDS011;5069;49.306;8.636;2022-10-22T05:36:02;2.27;;;1.00;;
10059;SDS011;5069;49.306;8.636;2022-10-22T05:39:04;3.20;;;0.97;;
10059;SDS011;5069;49.306;8.636;2022-10-22T05:42:06;2.10;;;0.73;;
10059;SDS011;5069;49.306;8.636;2022-10-22T05:45:07;3.47;;;1.30;;
10059;SDS011;5069;49.306;8.636;2022-10-22T05:48:09;4.43;;;1.00;;
10059;SDS011;5069;49.306;8.636;2022-10-22T05:51:11;1.00;;;0.90;;
10059;SDS011;5069;49.306;8.636;2022-10-22T05:54:17;3.07;;;1.10;;
10059;SDS011;5069;49.306;8.636;2022-10-22T05:57:20;0.97;;;0.83;;
10059;SDS011;5069;49.306;8.636;2022-10-22T06:00:21;1.40;;;1.20;;
10059;SDS011;5069;49.306;8.636;2022-10-22T06:03:23;2.67;;;1.20;;
10059;SDS011;5069;49.306;8.636;2022-10-22T06:06:26;5.70;;;1.40;;
10059;SDS011;5069;49.306;8.636;2022-10-22T06:09:31;2.10;;;1.43;;
10059;SDS011;5069;49.306;8.636;2022-10-22T06:12:38;2.93;;;1.20;;
10059;SDS011;5069;49.306;8.636;2022-10-22T06:15:40;4.03;;;1.33;;
10059;SDS011;5069;49.306;8.636;2022-10-22T06:18:41;3.57;;;1.90;;
10059;SDS011;5069;49.306;8.636;2022-10-22T06:21:43;3.40;;;1.60;;
10059;SDS011;5069;49.306;8.636;2022-10-22T06:24:45;2.60;;;1.50;;
10059;SDS011;5069;49.306;8.636;2022-10-22T06:27:49;3.80;;;1.40;;
10059;SDS011;5069;49.306;8.636;2022-10-22T06:30:52;1.73;;;1.20;;
10059;SDS011;5069;49.306;8.636;2022-10-22T06:33:54;3.53;;;1.30;;
10059;SDS011;5069;49.306;8.636;2022-10-22T06:36:56;1.40;;;1.10;;
10059;SDS011;5069;49.306;8.636;2022-10-22T06:39:58;1.57;;;1.10;;
10059;SDS011;5069;49.306;8.636;2022-10-22T06:42:59;2.53;;;1.03;;
10059;SDS011;5069;49.306;8.636;2022-10-22T06:46:01;1.43;;;1.10;;
10059;SDS011;5069;49.306;8.636;2022-10-22T06:49:04;3.03;;;1.07;;
10059;SDS011;5069;49.306;8.636;2022-10-22T06:52:06;1.67;;;1.10;;
10059;SDS011;5069;49.306;8.636;2022-10-22T06:55:07;1.67;;;0.90;;
10059;SDS011;5069;49.306;8.636;2022-10-22T06:58:09;3.50;;;1.20;;
10059;SDS011;5069;49.306;8.636;2022-10-22T07:01:11;2.90;;;0.90;;
10059;SDS011;5069;49.306;8.636;2022-10-22T07:04:15;3.10;;;2.90;;
10059;SDS011;5069;49.306;8.636;2022-10-22T07:07:16;3.70;;;2.00;;
10059;SDS011;5069;49.306;8.636;2022-10-22T07:10:18;2.80;;;1.40;;
10059;SDS011;5069;49.306;8.636;2022-10-22T07:13:20;1.67;;;1.10;;
10059;SDS011;5069;49.306;8.636;2022-10-22T07:16:23;3.10;;;1.20;;
10059;SDS011;5069;49.306;8.636;2022-10-22T07:19:32;2.73;;;1.13;;
10059;SDS011;5069;49.306;8.636;2022-10-22T07:22:34;2.33;;;1.33;;
10059;SDS011;5069;49.306;8.636;2022-10-22T07:25:35;1.90;;;1.17;;
10059;SDS011;5069;49.306;8.636;2022-10-22T07:28:37;1.43;;;1.30;;
10059;SDS011;5069;49.306;8.636;2022-10-22T07:31:40;2.83;;;1.90;;
10059;SDS011;5069;49.306;8.636;2022-10-22T07:34:42;7.23;;;2.50;;
10059;SDS011;5069;49.306;8.636;2022-10-22T07:37:44;4.90;;;2.10;;
10059;SDS011;5069;49.306;8.636;2022-10-22T07:40:45;5.13;;;2.00;;
10059;SDS011;5069;49.306;8.636;2022-10-22T07:43:47;3.50;;;2.20;;
10059;SDS011;5069;49.306;8.636;2022-10-22T07:46:48;4.53;;;2.90;;
10059;SDS011;5069;49.306;8.636;2022-10-22T07:49:49;4.23;;;2.83;;
10059;SDS011;5069;49.306;8.636;2022-10-22T07:52:51;3.47;;;2.70;;
10059;SDS011;5069;49.306;8.636;2022-10-22T07:55:56;2.63;;;1.80;;
10059;SDS011;5069;49.306;8.636;2022-10-22T07:58:58;3.60;;;1.60;;
10059;SDS011;5069;49.306;8.636;2022-10-22T08:01:59;3.10;;;1.50;;
10059;SDS011;5069;49.306;8.636;2022-10-22T08:05:01;3.40;;;1.20;;
10059;SDS011;5069;49.306;8.636;2022-10-22T08:08:02;4.67;;;1.20;;
10059;SDS011;5069;49.306;8.636;2022-10-22T08:11:04;4.00;;;1.10;;
10059;SDS011;5069;49.306;8.636;2022-10-22T08:14:05;3.13;;;1.00;;
10059;SDS011;5069;49.306;8.636;2022-10-22T08:17:07;3.40;;;0.87;;
10059;SDS011;5069;49.306;8.636;2022-10-22T08:20:09;2.97;;;1.10;;
10059;SDS011;5069;49.306;8.636;2022-10-22T08:23:10;2.97;;;1.13;;
10059;SDS011;5069;49.306;8.636;2022-10-22T08:26:12;1.80;;;1.00;;
10059;SDS011;5069;49.306;8.636;2022-10-22T08:29:13;0.90;;;0.70;;
10059;SDS011;5069;49.306;8.636;2022-10-22T08:32:15;3.23;;;0.90;;
10059;SDS011;5069;49.306;8.636;2022-10-22T08:35:17;1.97;;;0.93;;
10059;SDS011;5069;49.306;8.636;2022-10-22T08:38:18;1.10;;;0.83;;
10059;SDS011;5069;49.306;8.636;2022-10-22T08:41:21;4.07;;;1.03;;
10059;SDS011;5069;49.306;8.636;2022-10-22T08:51:21;6.13;;;0.90;;
10059;SDS011;5069;49.306;8.636;2022-10-22T08:54:35;4.13;;;0.97;;
10059;SDS011;5069;49.306;8.636;2022-10-22T09:01:04;0.73;;;0.50;;
10059;SDS011;5069;49.306;8.636;2022-10-22T09:07:14;4.10;;;1.00;;
10059;SDS011;5069;49.306;8.636;2022-10-22T09:10:16;4.70;;;1.00;;
10059;SDS011;5069;49.306;8.636;2022-10-22T09:13:19;1.23;;;0.80;;
10059;SDS011;5069;49.306;8.636;2022-10-22T09:16:36;1.67;;;0.80;;
10059;SDS011;5069;49.306;8.636;2022-10-22T09:26:20;1.87;;;0.60;;
10059;SDS011;5069;49.306;8.636;2022-10-22T09:29:23;3.33;;;0.87;;
10059;SDS011;5069;49.306;8.636;2022-10-22T09:32:30;1.03;;;0.60;;
10059;SDS011;5069;49.306;8.636;2022-10-22T09:35:33;1.83;;;0.60;;
10059;SDS011;5069;49.306;8.636;2022-10-22T09:38:44;1.33;;;0.70;;
10059;SDS011;5069;49.306;8.636;2022-10-22T09:41:50;0.87;;;0.63;;
10059;SDS011;5069;49.306;8.636;2022-10-22T09:44:56;1.33;;;0.60;;
10059;SDS011;5069;49.306;8.636;2022-10-22T09:48:08;0.60;;;0.50;;
10059;SDS011;5069;49.306;8.636;2022-10-22T09:51:23;1.67;;;0.70;;
10059;SDS011;5069;49.306;8.636;2022-10-22T09:54:38;1.03;;;0.60;;
10059;SDS011;5069;49.306;8.636;2022-10-22T09:57:51;0.80;;;0.50;;
10059;SDS011;5069;49.306;8.636;2022-10-22T10:00:55;1.80;;;0.80;;
10059;SDS011;5069;49.306;8.636;2022-10-22T10:04:02;1.93;;;0.90;;
10059;SDS011;5069;49.306;8.636;2022-10-22T10:07:17;0.60;;;0.60;;
10059;SDS011;5069;49.306;8.636;2022-10-22T10:10:26;2.20;;;0.60;;
10059;SDS011;5069;49.306;8.636;2022-10-22T10:23:08;1.03;;;0.60;;
10059;SDS011;5069;49.306;8.636;2022-10-22T10:26:28;1.93;;;0.70;;
10059;SDS011;5069;49.306;8.636;2022-10-22T10:29:53;0.90;;;0.70;;
10059;SDS011;5069;49.306;8.636;2022-10-22T10:33:40;1.03;;;0.70;;
10059;SDS011;5069;49.306;8.636;2022-10-22T10:40:14;2.20;;;0.80;;
10059;SDS011;5069;49.306;8.636;2022-10-22T10:47:05;1.57;;;0.80;;
10059;SDS011;5069;49.306;8.636;2022-10-22T10:54:24;1.40;;;0.70;;
10059;SDS011;5069;49.306;8.636;2022-10-22T11:01:02;3.60;;;1.20;;
10059;SDS011;5069;49.306;8.636;2022-10-22T11:07:49;2.53;;;0.93;;
10059;SDS011;5069;49.306;8.636;2022-10-22T11:11:04;4.77;;;1.00;;
10059;SDS011;5069;49.306;8.636;2022-10-22T11:14:13;3.17;;;0.80;;
10059;SDS011;5069;49.306;8.636;2022-10-22T11:17:16;3.77;;;1.00;;
10059;SDS011;5069;49.306;8.636;2022-10-22T11:20:25;3.57;;;1.10;;
10059;SDS011;5069;49.306;8.636;2022-10-22T11:30:43;2.93;;;0.90;;
10059;SDS011;5069;49.306;8.636;2022-10-22T11:33:51;3.63;;;0.77;;
10059;SDS011;5069;49.306;8.636;2022-10-22T11:37:10;4.30;;;1.00;;
10059;SDS011;5069;49.306;8.636;2022-10-22T11:40:21;5.77;;;1.10;;
10059;SDS011;5069;49.306;8.636;2022-10-22T11:44:04;2.93;;;0.90;;
10059;SDS011;5069;49.306;8.636;2022-10-22T11:47:19;3.20;;;0.90;;
10059;SDS011;5069;49.306;8.636;2022-10-22T11:50:42;2.57;;;1.10;;
10059;SDS011;5069;49.306;8.636;2022-10-22T11:53:44;4.13;;;0.97;;
10059;SDS011;5069;49.306;8.636;2022-10-22T11:56:46;4.13;;;0.93;;
10059;SDS011;5069;49.306;8.636;2022-10-22T11:59:49;3.27;;;1.10;;
10059;SDS011;5069;49.306;8.636;2022-10-22T12:06:25;3.33;;;1.10;;
10059;SDS011;5069;49.306;8.636;2022-10-22T12:09:28;3.23;;;1.00;;
10059;SDS011;5069;49.306;8.636;2022-10-22T12:12:34;4.10;;;0.90;;
10059;SDS011;5069;49.306;8.636;2022-10-22T12:15:45;1.77;;;1.07;;
10059;SDS011;5069;49.306;8.636;2022-10-22T12:18:52;2.93;;;1.30;;
10059;SDS011;5069;49.306;8.636;2022-10-22T12:21:58;2.47;;;1.00;;
10059;SDS011;5069;49.306;8.636;2022-10-22T12:25:16;3.23;;;0.90;;
10059;SDS011;5069;49.306;8.636;2022-10-22T12:28:36;2.93;;;0.80;;
10059;SDS011;5069;49.306;8.636;2022-10-22T12:31:41;2.30;;;1.03;;
10059;SDS011;5069;49.306;8.636;2022-10-22T12:34:45;3.43;;;1.10;;
10059;SDS011;5069;49.306;8.636;2022-10-22T12:37:54;2.53;;;1.07;;
10059;SDS011;5069;49.306;8.636;2022-10-22T12:41:01;3.33;;;1.00;;
10059;SDS011;5069;49.306;8.636;2022-10-22T12:44:03;3.83;;;1.07;;
10059;SDS011;5069;49.306;8.636;2022-10-22T12:47:06;2.97;;;1.03;;
10059;SDS011;5069;49.306;8.636;2022-10-22T12:50:13;2.87;;;0.93;;
10059;SDS011;5069;49.306;8.636;2022-10-22T12:53:33;2.83;;;1.17;;
10059;SDS011;5069;49.306;8.636;2022-10-22T12:56:37;4.03;;;1.03;;
10059;SDS011;5069;49.306;8.636;2022-10-22T12:59:39;4.93;;;1.30;;
10059;SDS011;5069;49.306;8.636;2022-10-22T13:02:49;3.30;;;0.97;;
10059;SDS011;5069;49.306;8.636;2022-10-22T13:05:52;3.87;;;1.20;;
10059;SDS011;5069;49.306;8.636;2022-10-22T13:08:55;8.43;;;1.30;;
10059;SDS011;5069;49.306;8.636;2022-10-22T13:12:03;6.70;;;1.30;;
10059;SDS011;5069;49.306;8.636;2022-10-22T13:18:35;3.43;;;1.00;;
10059;SDS011;5069;49.306;8.636;2022-10-22T13:21:37;4.07;;;1.20;;
10059;SDS011;5069;49.306;8.636;2022-10-22T13:24:47;3.90;;;1.10;;
10059;SDS011;5069;49.306;8.636;2022-10-22T13:27:53;3.20;;;1.30;;
10059;SDS011;5069;49.306;8.636;2022-10-22T13:30:59;4.40;;;1.13;;
10059;SDS011;5069;49.306;8.636;2022-10-22T13:34:05;2.10;;;1.00;;
10059;SDS011;5069;49.306;8.636;2022-10-22T13:37:13;2.57;;;1.20;;
10059;SDS011;5069;49.306;8.636;2022-10-22T13:40:14;1.83;;;1.07;;
10059;SDS011;5069;49.306;8.636;2022-10-22T13:43:16;1.87;;;1.10;;
10059;SDS011;5069;49.306;8.636;2022-10-22T13:46:19;3.57;;;1.10;;
10059;SDS011;5069;49.306;8.636;2022-10-22T13:49:22;3.43;;;1.40;;
10059;SDS011;5069;49.306;8.636;2022-10-22T13:52:27;2.83;;;1.33;;
10059;SDS011;5069;49.306;8.636;2022-10-22T13:55:34;3.43;;;1.10;;
10059;SDS011;5069;49.306;8.636;2022-10-22T13:58:35;3.33;;;1.10;;
10059;SDS011;5069;49.306;8.636;2022-10-22T14:01:37;3.77;;;1.20;;
10059;SDS011;5069;49.306;8.636;2022-10-22T14:04:39;3.03;;;1.00;;
10059;SDS011;5069;49.306;8.636;2022-10-22T14:07:41;3.07;;;1.10;;
10059;SDS011;5069;49.306;8.636;2022-10-22T14:10:44;6.10;;;1.43;;
10059;SDS011;5069;49.306;8.636;2022-10-22T14:13:46;2.60;;;1.03;;
10059;SDS011;5069;49.306;8.636;2022-10-22T14:16:47;6.67;;;0.97;;
10059;SDS011;5069;49.306;8.636;2022-10-22T14:19:49;1.80;;;1.00;;
10059;SDS011;5069;49.306;8.636;2022-10-22T14:22:50;2.70;;;1.50;;
10059;SDS011;5069;49.306;8.636;2022-10-22T14:25:52;4.30;;;1.30;;
10059;SDS011;5069;49.306;8.636;2022-10-22T14:28:54;2.33;;;1.00;;
10059;SDS011;5069;49.306;8.636;2022-10-22T14:32:13;3.53;;;1.13;;
10059;SDS011;5069;49.306;8.636;2022-10-22T14:35:18;3.43;;;1.13;;
10059;SDS011;5069;49.306;8.636;2022-10-22T14:38:24;3.43;;;1.10;;
10059;SDS011;5069;49.306;8.636;2022-10-22T14:41:26;3.07;;;1.10;;
10059;SDS011;5069;49.306;8.636;2022-10-22T14:44:29;1.77;;;1.00;;
10059;SDS011;5069;49.306;8.636;2022-10-22T14:47:30;2.10;;;1.10;;
10059;SDS011;5069;49.306;8.636;2022-10-22T14:50:31;3.77;;;1.10;;
10059;SDS011;5069;49.306;8.636;2022-10-22T14:53:33;1.67;;;1.10;;
10059;SDS011;5069;49.306;8.636;2022-10-22T14:56:34;3.80;;;1.07;;
10059;SDS011;5069;49.306;8.636;2022-10-22T14:59:42;2.30;;;0.90;;
10059;SDS011;5069;49.306;8.636;2022-10-22T15:02:44;3.40;;;1.50;;
10059;SDS011;5069;49.306;8.636;2022-10-22T15:05:49;3.03;;;1.10;;
10059;SDS011;5069;49.306;8.636;2022-10-22T15:08:53;2.53;;;1.10;;
10059;SDS011;5069;49.306;8.636;2022-10-22T15:11:55;2.17;;;0.90;;
10059;SDS011;5069;49.306;8.636;2022-10-22T15:14:56;2.27;;;1.10;;
10059;SDS011;5069;49.306;8.636;2022-10-22T15:17:57;4.33;;;1.07;;
10059;SDS011;5069;49.306;8.636;2022-10-22T15:21:00;1.83;;;0.97;;
10059;SDS011;5069;49.306;8.636;2022-10-22T15:24:04;1.87;;;0.90;;
10059;SDS011;5069;49.306;8.636;2022-10-22T15:27:06;5.77;;;1.27;;
10059;SDS011;5069;49.306;8.636;2022-10-22T15:30:08;4.73;;;1.10;;
10059;SDS011;5069;49.306;8.636;2022-10-22T15:33:09;3.80;;;1.20;;
10059;SDS011;5069;49.306;8.636;2022-10-22T15:36:12;2.90;;;1.10;;
10059;SDS011;5069;49.306;8.636;2022-10-22T15:39:15;4.00;;;1.00;;
10059;SDS011;5069;49.306;8.636;2022-10-22T15:42:17;3.13;;;1.40;;
10059;SDS011;5069;49.306;8.636;2022-10-22T15:45:19;2.60;;;1.10;;
10059;SDS011;5069;49.306;8.636;2022-10-22T15:48:25;2.20;;;1.00;;
10059;SDS011;5069;49.306;8.636;2022-10-22T15:51:26;2.10;;;1.07;;
10059;SDS011;5069;49.306;8.636;2022-10-22T15:54:28;3.33;;;1.37;;
10059;SDS011;5069;49.306;8.636;2022-10-22T15:57:30;2.03;;;0.90;;
10059;SDS011;5069;49.306;8.636;2022-10-22T16:00:31;2.97;;;1.10;;
10059;SDS011;5069;49.306;8.636;2022-10-22T16:03:33;1.77;;;1.10;;
10059;SDS011;5069;49.306;8.636;2022-10-22T16:06:36;3.07;;;1.27;;
10059;SDS011;5069;49.306;8.636;2022-10-22T16:09:40;4.70;;;1.50;;
10059;SDS011;5069;49.306;8.636;2022-10-22T16:12:41;3.20;;;1.37;;
10059;SDS011;5069;49.306;8.636;2022-10-22T16:15:43;4.57;;;1.53;;
10059;SDS011;5069;49.306;8.636;2022-10-22T16:18:45;4.40;;;1.80;;
10059;SDS011;5069;49.306;8.636;2022-10-22T16:21:50;3.57;;;1.70;;
10059;SDS011;5069;49.306;8.636;2022-10-22T16:24:54;4.40;;;1.97;;
10059;SDS011;5069;49.306;8.636;2022-10-22T16:27:55;5.50;;;2.20;;
10059;SDS011;5069;49.306;8.636;2022-10-22T16:31:00;4.07;;;1.93;;
10059;SDS011;5069;49.306;8.636;2022-10-22T16:34:03;5.27;;;2.10;;
10059;SDS011;5069;49.306;8.636;2022-10-22T16:37:05;4.37;;;2.03;;
10059;SDS011;5069;49.306;8.636;2022-10-22T16:40:10;3.43;;;2.00;;
10059;SDS011;5069;49.306;8.636;2022-10-22T16:43:12;5.00;;;2.30;;
10059;SDS011;5069;49.306;8.636;2022-10-22T16:46:18;5.10;;;2.00;;
10059;SDS011;5069;49.306;8.636;2022-10-22T16:49:20;4.03;;;1.60;;
10059;SDS011;5069;49.306;8.636;2022-10-22T16:52:22;5.63;;;1.90;;
10059;SDS011;5069;49.306;8.636;2022-10-22T16:55:23;12.60;;;2.63;;
10059;SDS011;5069;49.306;8.636;2022-10-22T16:58:25;6.27;;;2.30;;
10059;SDS011;5069;49.306;8.636;2022-10-22T17:01:26;4.60;;;2.13;;
10059;SDS011;5069;49.306;8.636;2022-10-22T17:04:29;8.17;;;3.03;;
10059;SDS011;5069;49.306;8.636;2022-10-22T17:07:30;8.60;;;3.30;;
10059;SDS011;5069;49.306;8.636;2022-10-22T17:10:33;4.93;;;3.20;;
10059;SDS011;5069;49.306;8.636;2022-10-22T17:13:36;4.77;;;3.83;;
10059;SDS011;5069;49.306;8.636;2022-10-22T17:16:38;7.17;;;4.10;;
10059;SDS011;5069;49.306;8.636;2022-10-22T17:19:39;11.37;;;5.80;;
10059;SDS011;5069;49.306;8.636;2022-10-22T17:22:41;10.57;;;6.00;;
10059;SDS011;5069;49.306;8.636;2022-10-22T17:25:44;10.13;;;5.90;;
10059;SDS011;5069;49.306;8.636;2022-10-22T17:28:46;9.90;;;4.83;;
10059;SDS011;5069;49.306;8.636;2022-10-22T17:31:48;6.73;;;4.37;;
10059;SDS011;5069;49.306;8.636;2022-10-22T17:34:51;10.23;;;4.67;;
10059;SDS011;5069;49.306;8.636;2022-10-22T17:37:52;12.33;;;5.03;;
10059;SDS011;5069;49.306;8.636;2022-10-22T17:40:55;5.57;;;4.27;;
10059;SDS011;5069;49.306;8.636;2022-10-22T17:44:01;7.47;;;4.53;;
10059;SDS011;5069;49.306;8.636;2022-10-22T17:47:04;9.63;;;5.40;;
10059;SDS011;5069;49.306;8.636;2022-10-22T17:50:06;9.17;;;5.87;;
10059;SDS011;5069;49.306;8.636;2022-10-22T17:53:08;9.27;;;5.80;;
10059;SDS011;5069;49.306;8.636;2022-10-22T17:56:11;9.73;;;5.57;;
10059;SDS011;5069;49.306;8.636;2022-10-22T17:59:17;8.63;;;4.90;;
10059;SDS011;5069;49.306;8.636;2022-10-22T18:02:19;11.53;;;3.70;;
10059;SDS011;5069;49.306;8.636;2022-10-22T18:05:22;7.23;;;3.40;;
10059;SDS011;5069;49.306;8.636;2022-10-22T18:08:24;7.87;;;3.93;;
10059;SDS011;5069;49.306;8.636;2022-10-22T18:11:26;12.73;;;5.47;;
10059;SDS011;5069;49.306;8.636;2022-10-22T18:14:28;11.67;;;5.63;;
10059;SDS011;5069;49.306;8.636;2022-10-22T18:17:29;7.53;;;4.33;;
10059;SDS011;5069;49.306;8.636;2022-10-22T18:20:34;8.70;;;5.00;;
10059;SDS011;5069;49.306;8.636;2022-10-22T18:23:36;8.83;;;4.80;;
10059;SDS011;5069;49.306;8.636;2022-10-22T18:26:37;7.03;;;4.17;;
10059;SDS011;5069;49.306;8.636;2022-10-22T18:29:39;10.93;;;5.03;;
10059;SDS011;5069;49.306;8.636;2022-10-22T18:32:40;7.90;;;5.10;;
10059;SDS011;5069;49.306;8.636;2022-10-22T18:35:41;10.63;;;5.27;;
10059;SDS011;5069;49.306;8.636;2022-10-22T18:38:47;8.87;;;5.10;;
10059;SDS011;5069;49.306;8.636;2022-10-22T18:41:59;12.67;;;6.50;;
10059;SDS011;5069;49.306;8.636;2022-10-22T18:45:06;12.20;;;5.73;;
10059;SDS011;5069;49.306;8.636;2022-10-22T18:48:07;10.67;;;6.60;;
10059;SDS011;5069;49.306;8.636;2022-10-22T18:51:09;10.87;;;5.23;;
10059;SDS011;5069;49.306;8.636;2022-10-22T18:54:11;6.73;;;3.40;;
10059;SDS011;5069;49.306;8.636;2022-10-22T18:57:24;6.53;;;3.60;;
10059;SDS011;5069;49.306;8.636;2022-10-22T19:00:25;7.33;;;3.33;;
10059;SDS011;5069;49.306;8.636;2022-10-22T19:03:27;6.90;;;3.60;;
10059;SDS011;5069;49.306;8.636;2022-10-22T19:06:29;7.23;;;3.47;;
10059;SDS011;5069;49.306;8.636;2022-10-22T19:09:37;11.10;;;3.47;;
10059;SDS011;5069;49.306;8.636;2022-10-22T19:12:39;7.40;;;2.87;;
10059;SDS011;5069;49.306;8.636;2022-10-22T19:15:41;5.00;;;2.90;;
10059;SDS011;5069;49.306;8.636;2022-10-22T19:18:43;5.23;;;2.77;;
10059;SDS011;5069;49.306;8.636;2022-10-22T19:21:44;7.10;;;2.90;;
10059;SDS011;5069;49.306;8.636;2022-10-22T19:24:47;6.77;;;2.50;;
10059;SDS011;5069;49.306;8.636;2022-10-22T19:27:49;5.33;;;2.60;;
10059;SDS011;5069;49.306;8.636;2022-10-22T19:30:50;5.73;;;3.10;;
10059;SDS011;5069;49.306;8.636;2022-10-22T19:33:52;4.23;;;3.00;;
10059;SDS011;5069;49.306;8.636;2022-10-22T19:36:56;8.53;;;3.20;;
10059;SDS011;5069;49.306;8.636;2022-10-22T19:39:58;6.73;;;2.70;;
10059;SDS011;5069;49.306;8.636;2022-10-22T19:42:59;7.23;;;2.80;;
10059;SDS011;5069;49.306;8.636;2022-10-22T19:46:02;7.17;;;3.80;;
10059;SDS011;5069;49.306;8.636;2022-10-22T19:49:04;7.73;;;3.20;;
10059;SDS011;5069;49.306;8.636;2022-10-22T19:52:06;11.30;;;3.60;;
10059;SDS011;5069;49.306;8.636;2022-10-22T19:55:07;7.10;;;3.80;;
10059;SDS011;5069;49.306;8.636;2022-10-22T19:58:11;4.20;;;3.77;;
10059;SDS011;5069;49.306;8.636;2022-10-22T20:01:13;9.87;;;4.10;;
10059;SDS011;5069;49.306;8.636;2022-10-22T20:04:17;5.10;;;3.33;;
10059;SDS011;5069;49.306;8.636;2022-10-22T20:07:19;6.27;;;3.10;;
10059;SDS011;5069;49.306;8.636;2022-10-22T20:10:21;5.83;;;2.80;;